createdAt,value
2023-04-06T00:01:11.091Z,8.35
2023-04-06T00:03:39.226Z,7.93
2023-04-06T00:06:07.415Z,7.75
2023-04-06T00:08:36.744Z,7.15
2023-04-06T00:11:04.527Z,7.93
2023-04-06T00:13:32.391Z,7.57
2023-04-06T00:16:00.205Z,8.30
2023-04-06T00:18:28.114Z,7.18
2023-04-06T00:20:56.528Z,7.53
2023-04-06T00:23:24.381Z,7.90
2023-04-06T00:25:53.506Z,8.10
2023-04-06T00:28:26.196Z,7.32
2023-04-06T00:30:56.178Z,7.53
2023-04-06T00:33:24.605Z,8.10
2023-04-06T00:35:52.951Z,7.93
2023-04-06T00:38:21.024Z,7.80
2023-04-06T00:40:48.886Z,7.35
2023-04-06T00:43:18.068Z,7.97
2023-04-06T00:45:45.913Z,7.97
2023-04-06T00:48:14.261Z,7.88
2023-04-06T00:50:42.071Z,7.93
2023-04-06T00:53:09.861Z,7.65
2023-04-06T00:55:37.636Z,8.02
2023-04-06T00:58:06.566Z,8.32
2023-04-06T01:00:35.872Z,8.68
2023-04-06T01:03:04.449Z,8.82
2023-04-06T01:05:32.384Z,8.77
2023-04-06T01:08:00.372Z,7.80
2023-04-06T01:10:29.576Z,8.23
2023-04-06T01:12:57.360Z,8.18
2023-04-06T01:15:26.125Z,8.20
2023-04-06T01:17:55.326Z,8.40
2023-04-06T01:20:23.453Z,8.45
2023-04-06T01:22:52.619Z,8.50
2023-04-06T01:25:20.509Z,8.35
2023-04-06T01:27:48.297Z,8.55
2023-04-06T01:30:18.235Z,8.38
2023-04-06T01:32:46.725Z,8.52
2023-04-06T01:35:14.575Z,7.80
2023-04-06T01:37:42.368Z,8.20
2023-04-06T01:40:13.123Z,7.78
2023-04-06T01:42:41.044Z,7.80
2023-04-06T01:45:09.788Z,8.40
2023-04-06T01:47:37.633Z,7.70
2023-04-06T01:50:07.190Z,8.15
2023-04-06T01:52:35.356Z,8.38
2023-04-06T01:55:03.102Z,7.93
2023-04-06T01:57:32.401Z,8.20
2023-04-06T02:00:00.312Z,9.10
2023-04-06T02:02:28.252Z,8.85
2023-04-06T02:04:56.056Z,8.93
2023-04-06T02:07:23.851Z,9.00
2023-04-06T02:09:53.048Z,8.65
2023-04-06T02:12:20.813Z,8.07
2023-04-06T02:14:49.956Z,8.93
2023-04-06T02:17:17.797Z,9.00
2023-04-06T02:19:45.561Z,9.55
2023-04-06T02:22:13.465Z,9.98
2023-04-06T02:24:41.274Z,9.35
2023-04-06T02:27:09.066Z,9.27
2023-04-06T02:29:36.827Z,9.35
2023-04-06T02:32:06.654Z,9.70
2023-04-06T02:34:34.897Z,10.57
2023-04-06T02:37:02.720Z,11.60
2023-04-06T02:39:30.520Z,10.40
2023-04-06T02:41:58.358Z,9.23
2023-04-06T02:44:26.255Z,10.52
2023-04-06T02:46:54.054Z,11.27
2023-04-06T02:49:23.295Z,12.27
2023-04-06T02:51:51.056Z,11.10
2023-04-06T02:54:18.833Z,11.57
2023-04-06T02:56:46.606Z,9.98
2023-04-06T02:59:14.451Z,11.45
2023-04-06T03:01:42.246Z,10.10
2023-04-06T03:04:10.032Z,9.60
2023-04-06T03:06:39.315Z,9.07
2023-04-06T03:09:08.687Z,9.18
2023-04-06T03:11:36.763Z,9.50
2023-04-06T03:14:04.558Z,9.13
2023-04-06T03:16:32.362Z,8.93
2023-04-06T03:19:00.277Z,9.30
2023-04-06T03:21:28.048Z,12.25
2023-04-06T03:23:57.221Z,8.63
2023-04-06T03:26:25.296Z,9.13
2023-04-06T03:28:53.128Z,8.95
2023-04-06T03:31:20.977Z,8.43
2023-04-06T03:33:48.787Z,10.20
2023-04-06T03:36:16.722Z,9.52
2023-04-06T03:38:44.497Z,9.95
2023-04-06T03:41:13.664Z,10.85
2023-04-06T03:43:41.412Z,10.05
2023-04-06T03:46:09.245Z,10.35
2023-04-06T03:48:37.325Z,10.27
2023-04-06T03:51:05.446Z,10.00
2023-04-06T03:53:33.284Z,10.05
2023-04-06T03:56:03.396Z,10.30
2023-04-06T03:58:33.846Z,9.50
2023-04-06T04:01:01.642Z,9.90
2023-04-06T04:03:29.542Z,10.07
2023-04-06T04:05:57.547Z,9.85
2023-04-06T04:08:26.650Z,10.93
2023-04-06T04:10:54.506Z,10.75
2023-04-06T04:13:22.265Z,9.95
2023-04-06T04:15:51.599Z,10.73
2023-04-06T04:18:19.682Z,11.07
2023-04-06T04:20:47.801Z,9.80
2023-04-06T04:23:15.592Z,9.75
2023-04-06T04:25:45.689Z,10.15
2023-04-06T04:28:13.451Z,9.87
2023-04-06T04:30:41.591Z,10.27
2023-04-06T04:33:10.846Z,11.05
2023-04-06T04:35:38.667Z,11.13
2023-04-06T04:38:06.468Z,10.13
2023-04-06T04:40:34.270Z,9.52
2023-04-06T04:43:02.060Z,9.32
2023-04-06T04:45:29.885Z,8.93
2023-04-06T04:47:57.850Z,9.75
2023-04-06T04:50:27.075Z,9.27
2023-04-06T04:52:54.889Z,9.65
2023-04-06T04:55:22.734Z,9.90
2023-04-06T04:57:50.686Z,9.15
2023-04-06T05:00:18.772Z,9.10
2023-04-06T05:02:46.786Z,8.45
2023-04-06T05:05:14.620Z,8.88
2023-04-06T05:07:43.784Z,8.48
2023-04-06T05:10:12.065Z,9.25
2023-04-06T05:12:40.059Z,9.30
2023-04-06T05:15:08.939Z,9.80
2023-04-06T05:17:36.842Z,9.50
2023-04-06T05:20:04.899Z,10.18
2023-04-06T05:22:32.689Z,10.27
2023-04-06T05:25:01.886Z,10.02
2023-04-06T05:27:29.729Z,9.90
2023-04-06T05:29:57.970Z,10.57
2023-04-06T05:32:26.480Z,10.35
2023-04-06T05:34:54.353Z,10.90
2023-04-06T05:37:22.117Z,10.45
2023-04-06T05:39:50.028Z,10.90
2023-04-06T05:42:19.402Z,9.63
2023-04-06T05:44:47.205Z,10.57
2023-04-06T05:47:15.025Z,10.15
2023-04-06T05:49:43.936Z,9.55
2023-04-06T05:52:11.829Z,9.88
2023-04-06T05:54:39.619Z,9.77
2023-04-06T05:57:07.439Z,9.73
2023-04-06T05:59:36.873Z,9.18
2023-04-06T06:02:04.832Z,8.77
2023-04-06T06:04:33.008Z,9.27
2023-04-06T06:07:01.319Z,9.80
2023-04-06T06:09:29.142Z,9.43
2023-04-06T06:11:57.137Z,9.05
2023-04-06T06:14:24.932Z,9.60
2023-04-06T06:16:54.276Z,8.93
2023-04-06T06:19:22.115Z,9.50
2023-04-06T06:21:50.013Z,9.15
2023-04-06T06:24:17.779Z,8.75
2023-04-06T06:26:45.547Z,9.15
2023-04-06T06:29:13.356Z,9.32
2023-04-06T06:31:41.335Z,8.85
2023-04-06T06:34:11.307Z,8.32
2023-04-06T06:36:39.119Z,9.25
2023-04-06T06:39:07.114Z,8.88
2023-04-06T06:41:35.137Z,9.43
2023-04-06T06:44:03.217Z,9.70
2023-04-06T06:46:31.198Z,9.15
2023-04-06T06:49:01.752Z,9.00
2023-04-06T06:51:31.061Z,9.13
2023-04-06T06:53:58.886Z,9.00
2023-04-06T06:56:27.711Z,8.60
2023-04-06T06:58:55.645Z,8.32
2023-04-06T07:01:23.545Z,8.90
2023-04-06T07:03:51.617Z,8.65
2023-04-06T07:06:19.468Z,9.30
2023-04-06T07:08:48.974Z,8.95
2023-04-06T07:11:16.800Z,9.50
2023-04-06T07:13:44.603Z,9.60
2023-04-06T07:16:12.459Z,9.60
2023-04-06T07:18:40.329Z,10.10
2023-04-06T07:21:08.440Z,9.65
2023-04-06T07:23:36.306Z,10.32
2023-04-06T07:26:05.715Z,9.50
2023-04-06T07:28:33.517Z,9.80
2023-04-06T07:31:01.428Z,10.90
2023-04-06T07:33:30.926Z,10.75
2023-04-06T07:35:59.831Z,10.02
2023-04-06T07:38:27.780Z,10.50
2023-04-06T07:40:56.395Z,10.18
2023-04-06T07:43:26.269Z,10.15
2023-04-06T07:45:54.756Z,9.90
2023-04-06T07:48:22.623Z,10.38
2023-04-06T07:50:50.792Z,9.70
2023-04-06T07:53:18.667Z,9.88
2023-04-06T07:55:46.487Z,9.48
2023-04-06T07:58:14.280Z,9.80
2023-04-06T08:00:43.459Z,10.27
2023-04-06T08:03:11.226Z,9.77
2023-04-06T08:05:39.260Z,10.05
2023-04-06T08:08:07.065Z,9.40
2023-04-06T08:10:35.562Z,9.45
2023-04-06T08:13:03.418Z,9.00
2023-04-06T08:15:31.282Z,10.15
2023-04-06T08:18:00.914Z,9.77
2023-04-06T08:20:28.736Z,10.55
2023-04-06T08:22:56.531Z,10.32
2023-04-06T08:25:24.445Z,9.80
2023-04-06T08:27:52.216Z,10.23
2023-04-06T08:30:21.024Z,9.82
2023-04-06T08:32:48.901Z,10.30
2023-04-06T08:35:18.206Z,9.70
2023-04-06T08:37:46.872Z,9.93
2023-04-06T08:40:15.254Z,10.43
2023-04-06T08:42:51.057Z,10.32
2023-04-06T08:45:22.077Z,9.85
2023-04-06T08:47:51.921Z,10.32
2023-04-06T08:50:21.426Z,9.88
2023-04-06T08:52:50.568Z,10.52
2023-04-06T08:55:18.676Z,9.90
2023-04-06T08:57:48.257Z,10.70
2023-04-06T09:00:17.640Z,10.05
2023-04-06T09:02:48.134Z,9.90
2023-04-06T09:05:16.716Z,9.35
2023-04-06T09:07:47.452Z,9.88
2023-04-06T09:10:16.405Z,9.57
2023-04-06T09:12:45.149Z,9.38
2023-04-06T09:15:22.140Z,10.45
2023-04-06T09:17:53.006Z,10.48
2023-04-06T09:20:26.865Z,10.60
2023-04-06T09:22:56.798Z,9.43
2023-04-06T09:25:27.426Z,10.15
2023-04-06T09:28:02.074Z,10.55
2023-04-06T09:30:30.267Z,10.40
2023-04-06T09:33:00.485Z,9.52
2023-04-06T09:35:30.417Z,10.23
2023-04-06T09:37:59.588Z,11.05
2023-04-06T09:40:27.470Z,10.45
2023-04-06T09:42:58.420Z,10.50
2023-04-06T09:45:27.851Z,10.63
2023-04-06T09:47:57.446Z,10.25
2023-04-06T09:50:27.991Z,10.30
2023-04-06T09:53:00.001Z,9.20
2023-04-06T09:55:33.104Z,10.55
2023-04-06T09:58:07.253Z,10.93
2023-04-06T10:00:45.286Z,10.50
2023-04-06T10:03:22.452Z,10.65
2023-04-06T10:05:59.336Z,10.20
2023-04-06T10:08:32.834Z,10.10
2023-04-06T10:11:02.816Z,10.13
2023-04-06T10:13:31.084Z,10.80
2023-04-06T10:16:02.265Z,10.38
2023-04-06T10:18:30.385Z,10.57
2023-04-06T10:21:02.747Z,10.38
2023-04-06T10:23:35.815Z,10.65
2023-04-06T10:26:05.512Z,10.55
2023-04-06T10:28:35.247Z,9.70
2023-04-06T10:31:04.588Z,10.32
2023-04-06T10:33:32.449Z,9.80
2023-04-06T10:36:00.552Z,10.98
2023-04-06T10:38:41.331Z,10.45
2023-04-06T10:41:12.600Z,9.95
2023-04-06T10:43:42.101Z,10.45
2023-04-06T10:46:11.716Z,11.77
2023-04-06T10:48:41.126Z,10.80
2023-04-06T10:51:14.150Z,10.65
2023-04-06T10:53:44.262Z,11.88
2023-04-06T10:56:15.332Z,10.27
2023-04-06T10:58:47.533Z,10.77
2023-04-06T11:01:17.177Z,11.43
2023-04-06T11:03:46.761Z,10.55
2023-04-06T11:06:20.778Z,11.30
2023-04-06T11:08:48.642Z,10.80
2023-04-06T11:11:20.090Z,11.23
2023-04-06T11:13:51.097Z,10.75
2023-04-06T11:16:20.514Z,11.10
2023-04-06T11:18:53.251Z,11.55
2023-04-06T11:21:21.794Z,10.90
2023-04-06T11:23:49.594Z,10.95
2023-04-06T11:26:18.797Z,9.85
2023-04-06T11:28:46.746Z,10.60
2023-04-06T11:31:14.784Z,11.32
2023-04-06T11:33:42.566Z,10.70
2023-04-06T11:36:10.739Z,10.15
2023-04-06T11:38:41.459Z,10.50
2023-04-06T11:41:09.314Z,10.85
2023-04-06T11:43:38.530Z,10.98
2023-04-06T11:46:07.685Z,10.27
2023-04-06T11:48:46.588Z,10.55
2023-04-06T11:51:14.833Z,10.13
2023-04-06T11:53:46.985Z,11.10
2023-04-06T11:56:25.540Z,10.77
2023-04-06T11:58:56.298Z,10.38
2023-04-06T12:01:24.391Z,11.43
2023-04-06T12:03:53.281Z,10.50
2023-04-06T12:06:21.421Z,9.88
2023-04-06T12:08:49.276Z,10.45
2023-04-06T12:11:17.093Z,10.75
2023-04-06T12:13:44.852Z,10.35
2023-04-06T12:16:14.263Z,10.18
2023-04-06T12:18:42.070Z,10.48
2023-04-06T12:21:09.881Z,10.77
2023-04-06T12:23:37.764Z,10.15
2023-04-06T12:26:05.915Z,8.70
2023-04-06T12:28:41.237Z,10.13
2023-04-06T12:31:18.587Z,9.40
2023-04-06T12:33:49.285Z,8.65
2023-04-06T12:36:19.953Z,8.98
2023-04-06T12:38:49.278Z,8.23
2023-04-06T12:41:17.353Z,9.07
2023-04-06T12:43:45.996Z,9.13
2023-04-06T12:46:14.168Z,8.43
2023-04-06T12:48:43.504Z,9.13
2023-04-06T12:51:11.641Z,8.60
2023-04-06T12:53:39.480Z,8.25
2023-04-06T12:56:14.142Z,8.93
2023-04-06T12:58:42.929Z,8.37
2023-04-06T13:01:12.538Z,9.07
2023-04-06T13:03:40.853Z,9.07
2023-04-06T13:06:10.633Z,9.05
2023-04-06T13:08:39.512Z,8.57
2023-04-06T13:11:09.844Z,7.80
2023-04-06T13:13:38.522Z,7.95
2023-04-06T13:16:09.405Z,8.13
2023-04-06T13:18:39.513Z,7.78
2023-04-06T13:21:09.819Z,8.20
2023-04-06T13:23:37.589Z,9.43
2023-04-06T13:26:07.033Z,9.05
2023-04-06T13:28:38.079Z,9.27
2023-04-06T13:31:05.938Z,8.63
2023-04-06T13:33:33.930Z,8.93
2023-04-06T13:36:01.862Z,8.02
2023-04-06T13:38:32.081Z,8.25
2023-04-06T13:40:59.986Z,9.20
2023-04-06T13:43:28.192Z,8.45
2023-04-06T13:45:59.012Z,8.93
2023-04-06T13:48:27.383Z,8.55
2023-04-06T13:50:55.341Z,8.32
2023-04-06T13:53:23.132Z,8.90
2023-04-06T13:55:58.301Z,8.55
2023-04-06T13:58:26.647Z,7.75
2023-04-06T14:00:54.771Z,8.02
2023-04-06T14:03:24.333Z,7.63
2023-04-06T14:05:52.430Z,8.65
2023-04-06T14:08:20.095Z,7.85
2023-04-06T14:10:47.798Z,8.25
2023-04-06T14:13:18.014Z,8.07
2023-04-06T14:15:45.721Z,7.40
2023-04-06T14:18:13.478Z,7.10
2023-04-06T14:20:41.164Z,7.15
2023-04-06T14:23:08.816Z,6.57
2023-04-06T14:25:37.207Z,6.95
2023-04-06T14:28:05.052Z,7.70
2023-04-06T14:30:34.129Z,7.60
2023-04-06T14:33:02.022Z,8.48
2023-04-06T14:35:31.521Z,6.97
2023-04-06T14:37:59.270Z,7.50
2023-04-06T14:40:27.123Z,7.82
2023-04-06T14:42:56.596Z,7.38
2023-04-06T14:45:24.325Z,7.00
2023-04-06T14:47:53.433Z,6.38
2023-04-06T14:50:21.267Z,6.90
2023-04-06T14:52:48.899Z,7.15
2023-04-06T14:55:16.997Z,6.72
2023-04-06T14:57:44.862Z,7.00
2023-04-06T15:00:13.976Z,7.13
2023-04-06T15:02:44.216Z,7.45
2023-04-06T15:05:13.419Z,6.40
2023-04-06T15:07:41.218Z,12.93
2023-04-06T15:10:12.081Z,15.57
2023-04-06T15:12:40.244Z,16.15
2023-04-06T15:15:08.861Z,10.18
2023-04-06T15:17:36.591Z,8.63
2023-04-06T15:20:04.708Z,8.65
2023-04-06T15:22:33.776Z,7.88
2023-04-06T15:25:01.458Z,6.90
2023-04-06T15:27:29.127Z,8.07
2023-04-06T15:29:56.890Z,6.80
2023-04-06T15:32:24.546Z,6.75
2023-04-06T15:34:52.281Z,6.45
2023-04-06T15:37:20.201Z,6.10
2023-04-06T15:39:49.299Z,6.25
2023-04-06T15:42:16.983Z,6.05
2023-04-06T15:44:44.653Z,5.70
2023-04-06T15:47:12.297Z,5.18
2023-04-06T15:49:39.977Z,5.40
2023-04-06T15:52:07.661Z,6.50
2023-04-06T15:54:36.515Z,5.95
2023-04-06T15:57:05.537Z,5.60
2023-04-06T15:59:33.277Z,5.43
2023-04-06T16:02:01.031Z,5.47
2023-04-06T16:04:29.175Z,5.10
2023-04-06T16:06:56.974Z,5.63
2023-04-06T16:09:24.672Z,5.63
2023-04-06T16:11:52.425Z,6.25
2023-04-06T16:14:21.839Z,5.85
2023-04-06T16:16:50.213Z,5.95
2023-04-06T16:19:18.621Z,6.07
2023-04-06T16:21:55.545Z,6.20
2023-04-06T16:24:23.288Z,5.97
2023-04-06T16:26:50.958Z,6.03
2023-04-06T16:29:18.693Z,6.28
2023-04-06T16:31:48.361Z,6.03
2023-04-06T16:34:16.201Z,6.25
2023-04-06T16:36:43.923Z,6.40
2023-04-06T16:39:11.975Z,6.57
2023-04-06T16:41:40.807Z,7.55
2023-04-06T16:44:11.230Z,6.32
2023-04-06T16:46:40.173Z,6.75
2023-04-06T16:49:09.220Z,6.20
2023-04-06T16:51:37.684Z,6.03
2023-04-06T16:54:06.146Z,5.75
2023-04-06T16:56:34.067Z,7.03
2023-04-06T16:59:01.785Z,6.30
2023-04-06T17:01:30.473Z,7.03
2023-04-06T17:04:02.041Z,6.25
2023-04-06T17:06:31.304Z,6.53
2023-04-06T17:08:59.723Z,6.10
2023-04-06T17:11:32.916Z,6.47
2023-04-06T17:14:11.244Z,6.10
2023-04-06T17:16:39.119Z,6.22
2023-04-06T17:19:06.837Z,6.90
2023-04-06T17:21:36.119Z,5.57
2023-04-06T17:24:03.924Z,6.18
2023-04-06T17:26:31.811Z,7.00
2023-04-06T17:28:59.539Z,7.40
2023-04-06T17:31:27.405Z,7.35
2023-04-06T17:33:55.122Z,6.60
2023-04-06T17:36:22.847Z,6.90
2023-04-06T17:38:51.924Z,6.22
2023-04-06T17:41:19.646Z,5.93
2023-04-06T17:43:48.219Z,5.82
2023-04-06T17:46:16.621Z,5.90
2023-04-06T17:48:46.510Z,5.63
2023-04-06T17:51:15.327Z,4.70
2023-04-06T17:53:42.994Z,4.10
2023-04-06T17:56:12.317Z,4.13
2023-04-06T17:58:40.410Z,3.40
2023-04-06T18:01:11.115Z,3.78
2023-04-06T18:03:39.176Z,4.22
2023-04-06T18:06:14.386Z,4.00
2023-04-06T18:08:42.797Z,3.58
2023-04-06T18:11:17.022Z,4.03
2023-04-06T18:13:44.813Z,3.80
2023-04-06T18:16:12.558Z,3.80
2023-04-06T18:18:40.338Z,3.92
2023-04-06T18:21:08.332Z,3.83
2023-04-06T18:23:37.522Z,3.90
2023-04-06T18:26:06.257Z,4.30
2023-04-06T18:28:35.458Z,4.00
2023-04-06T18:31:03.207Z,3.88
2023-04-06T18:33:32.261Z,3.55
2023-04-06T18:36:00.262Z,4.38
2023-04-06T18:38:30.804Z,4.68
2023-04-06T18:40:58.910Z,3.80
2023-04-06T18:43:26.621Z,4.82
2023-04-06T18:45:55.774Z,5.28
2023-04-06T18:48:23.563Z,5.22
2023-04-06T18:50:54.872Z,10.75
2023-04-06T18:53:22.608Z,7.80
2023-04-06T18:55:51.461Z,6.22
2023-04-06T18:58:19.306Z,5.25
2023-04-06T19:00:46.999Z,5.10
2023-04-06T19:03:16.162Z,5.72
2023-04-06T19:05:44.369Z,5.38
2023-04-06T19:08:12.942Z,6.63
2023-04-06T19:10:40.688Z,7.38
2023-04-06T19:13:08.468Z,8.10
2023-04-06T19:15:36.256Z,7.40
2023-04-06T19:18:04.260Z,7.00
2023-04-06T19:20:36.080Z,5.22
2023-04-06T19:23:04.699Z,5.55
2023-04-06T19:25:32.426Z,4.60
2023-04-06T19:28:00.649Z,5.43
2023-04-06T19:30:28.441Z,5.00
2023-04-06T19:32:56.507Z,5.13
2023-04-06T19:35:24.274Z,4.70
2023-04-06T19:37:53.364Z,4.53
2023-04-06T19:40:21.237Z,4.40
2023-04-06T19:42:49.009Z,5.03
2023-04-06T19:45:16.744Z,4.65
2023-04-06T19:47:44.460Z,4.88
2023-04-06T19:50:12.168Z,5.07
2023-04-06T19:52:39.899Z,5.00
2023-04-06T19:55:09.650Z,5.43
2023-04-06T19:57:37.408Z,5.10
2023-04-06T20:00:06.207Z,4.40
2023-04-06T20:02:34.153Z,4.70
2023-04-06T20:05:01.909Z,4.75
2023-04-06T20:07:29.681Z,4.43
2023-04-06T20:09:57.361Z,4.22
2023-04-06T20:12:26.524Z,4.40
2023-04-06T20:14:54.306Z,4.80
2023-04-06T20:17:22.093Z,4.18
2023-04-06T20:19:52.034Z,4.60
2023-04-06T20:22:19.756Z,4.80
2023-04-06T20:24:47.748Z,5.05
2023-04-06T20:27:15.644Z,4.15
2023-04-06T20:29:44.766Z,4.57
2023-04-06T20:32:14.462Z,4.45
2023-04-06T20:34:42.173Z,4.25
2023-04-06T20:37:09.940Z,4.60
2023-04-06T20:39:37.795Z,4.90
2023-04-06T20:42:07.430Z,4.90
2023-04-06T20:44:35.618Z,4.70
2023-04-06T20:47:04.722Z,4.57
2023-04-06T20:49:32.421Z,4.90
2023-04-06T20:52:01.475Z,4.30
2023-04-06T20:54:29.525Z,4.90
2023-04-06T20:56:59.654Z,4.80
2023-04-06T20:59:27.578Z,5.07
2023-04-06T21:01:55.502Z,4.60
2023-04-06T21:04:24.906Z,5.32
2023-04-06T21:06:52.782Z,4.60
2023-04-06T21:09:20.721Z,3.70
2023-04-06T21:11:48.395Z,4.38
2023-04-06T21:14:16.637Z,4.35
2023-04-06T21:16:45.279Z,4.28
2023-04-06T21:19:12.964Z,4.85
2023-04-06T21:21:42.083Z,5.40
2023-04-06T21:24:09.848Z,4.25
2023-04-06T21:26:37.708Z,4.80
2023-04-06T21:29:05.537Z,5.20
2023-04-06T21:31:34.842Z,4.75
2023-04-06T21:34:03.108Z,4.80
2023-04-06T21:36:32.713Z,4.88
2023-04-06T21:39:02.823Z,5.72
2023-04-06T21:41:30.852Z,5.80
2023-04-06T21:43:58.941Z,5.65
2023-04-06T21:46:26.842Z,5.97
2023-04-06T21:48:54.510Z,5.38
2023-04-06T21:51:23.653Z,4.93
2023-04-06T21:53:52.849Z,4.95
2023-04-06T21:56:22.946Z,4.95
2023-04-06T21:58:50.971Z,5.13
2023-04-06T22:01:18.696Z,4.65
2023-04-06T22:03:47.351Z,5.00
2023-04-06T22:06:15.299Z,4.82
2023-04-06T22:08:43.177Z,4.50
2023-04-06T22:11:12.194Z,4.93
2023-04-06T22:13:41.233Z,4.93
2023-04-06T22:16:09.313Z,4.78
2023-04-06T22:18:39.070Z,5.25
2023-04-06T22:21:07.293Z,4.90
2023-04-06T22:23:35.894Z,5.45
2023-04-06T22:26:03.647Z,5.53
2023-04-06T22:28:31.305Z,5.60
2023-04-06T22:31:00.377Z,5.72
2023-04-06T22:33:28.071Z,5.72
2023-04-06T22:35:55.827Z,5.80
2023-04-06T22:38:23.622Z,5.78
2023-04-06T22:40:51.300Z,5.88
2023-04-06T22:43:18.987Z,5.38
2023-04-06T22:45:46.653Z,5.68
2023-04-06T22:48:15.690Z,5.53
2023-04-06T22:50:43.455Z,5.75
2023-04-06T22:59:24.165Z,5.55
2023-04-06T23:01:51.919Z,6.10
2023-04-06T23:04:20.102Z,5.90
2023-04-06T23:06:48.111Z,5.53
2023-04-06T23:09:15.924Z,5.32
2023-04-06T23:11:43.658Z,5.95
2023-04-06T23:14:11.442Z,6.00
2023-04-06T23:16:40.462Z,6.07
2023-04-06T23:19:08.266Z,5.82
2023-04-06T23:21:36.038Z,5.97
2023-04-06T23:24:03.890Z,6.32
2023-04-06T23:26:31.599Z,6.75
2023-04-06T23:28:59.245Z,6.65
2023-04-06T23:31:26.905Z,7.78
2023-04-06T23:33:56.055Z,7.38
2023-04-06T23:36:23.765Z,7.85
2023-04-06T23:38:51.456Z,8.52
2023-04-06T23:41:19.270Z,8.73
2023-04-06T23:43:46.981Z,8.73
2023-04-06T23:46:17.170Z,8.40
2023-04-06T23:48:45.034Z,8.10
2023-04-06T23:51:14.128Z,8.38
2023-04-06T23:53:42.213Z,9.13
2023-04-06T23:56:09.996Z,8.88
2023-04-06T23:58:37.674Z,8.77
